PWSweather.com
Personal Weather Stations
Station Observations
KRMIDAS
Braemar, Lake Zurich, IL 60047

BraemarLake Zurich, IL 60047

Lat: 42.178, Lon: -88.102

Elevation: 837

Station Type: Davis Vantage Pro 2

http://tomkeramidas.com/cumulus/index.htm

Latest ConditionsUpdated 8:30:01 PM CDT Tuesday, Apr 21, 2015
Currently Today's Max Today's Min Today's Average
Temperature 41.3°F5.2°C 51.6°F10.9°C 37.3°F2.9°C 42.7°F5.9°C
Dew Point 27.2°F-2.7°C 35.0°F1.7°C 27.1°F-2.7°C 31.7°F-0.2°C
Winds 7.0 mph W11.3 kmh W 18.0 mph W29.0 kmh W - 10.8 mph 17.4 kmh
Wind Gusts 14.0 mph22.5 kmh 35.0 mph56.3 kmh - -
Humidity 57% 84% 45% 66%
Pressure 29.70 in1005.8 mb 29.70 in1005.8 mb 29.59 in1002.0 mb -
Hour Temp Dew Point Humidity Winds Wind Gusts Pressure Precip Precip Rate Daily Precip Total
08:30 PM 41.3°F5.2°C 27.2°F-2.7°C 57% 7.0 mph W11.3 kmh W 14.0 mph22.5 kmh 29.70 in1005.8 mb 0.00 in0.0 mm 0.00 in0.0 mm 0.00 in0.0 mm
08:15 PM 41.7°F5.4°C 27.1°F-2.7°C 56% 11.0 mph WSW17.7 kmh WSW 21.0 mph33.8 kmh 29.70 in1005.8 mb 0.00 in0.0 mm 0.00 in0.0 mm 0.00 in0.0 mm
08:00 PM 42.0°F5.6°C 27.4°F-2.6°C 56% 10.0 mph WSW16.1 kmh WSW 20.0 mph32.2 kmh 29.70 in1005.8 mb 0.00 in0.0 mm 0.00 in0.0 mm 0.00 in0.0 mm
07:45 PM 42.3°F5.7°C 28.1°F-2.2°C 57% 9.0 mph W14.5 kmh W 23.0 mph37.0 kmh 29.70 in1005.8 mb 0.00 in0.0 mm 0.00 in0.0 mm 0.00 in0.0 mm
07:30 PM 42.6°F5.9°C 28.4°F-2.0°C 57% 9.0 mph W14.5 kmh W 20.0 mph32.2 kmh 29.70 in1005.8 mb 0.00 in0.0 mm 0.00 in0.0 mm 0.00 in0.0 mm
07:15 PM 42.8°F6.0°C 28.2°F-2.1°C 56% 11.0 mph WSW17.7 kmh WSW 20.0 mph32.2 kmh 29.69 in1005.4 mb 0.00 in0.0 mm 0.00 in0.0 mm 0.00 in0.0 mm
07:00 PM 43.2°F6.2°C 28.1°F-2.2°C 55% 14.0 mph WSW22.5 kmh WSW 25.0 mph40.2 kmh 29.69 in1005.4 mb 0.00 in0.0 mm 0.00 in0.0 mm 0.00 in0.0 mm
06:45 PM 43.8°F6.6°C 29.1°F-1.6°C 56% 10.0 mph WSW16.1 kmh WSW 20.0 mph32.2 kmh 29.69 in1005.4 mb 0.00 in0.0 mm 0.00 in0.0 mm 0.00 in0.0 mm
06:30 PM 44.0°F6.7°C 28.9°F-1.7°C 55% 14.0 mph W22.5 kmh W 29.0 mph46.7 kmh 29.69 in1005.4 mb 0.00 in0.0 mm 0.00 in0.0 mm 0.00 in0.0 mm
06:15 PM 44.1°F6.7°C 28.9°F-1.7°C 55% 12.0 mph W19.3 kmh W 28.0 mph45.1 kmh 29.69 in1005.4 mb 0.00 in0.0 mm 0.00 in0.0 mm 0.00 in0.0 mm
06:00 PM 44.5°F6.9°C 29.3°F-1.5°C 55% 11.0 mph WSW17.7 kmh WSW 22.0 mph35.4 kmh 29.68 in1005.1 mb 0.00 in0.0 mm 0.00 in0.0 mm 0.00 in0.0 mm
05:45 PM 44.8°F7.1°C 29.2°F-1.6°C 54% 14.0 mph WSW22.5 kmh WSW 28.0 mph45.1 kmh 29.68 in1005.1 mb 0.00 in0.0 mm 0.00 in0.0 mm 0.00 in0.0 mm
05:30 PM 45.2°F7.3°C 29.5°F-1.4°C 54% 15.0 mph WSW24.1 kmh WSW 30.0 mph48.3 kmh 29.67 in1004.7 mb 0.00 in0.0 mm 0.00 in0.0 mm 0.00 in0.0 mm
05:15 PM 46.2°F7.9°C 29.5°F-1.4°C 52% 13.0 mph W20.9 kmh W 25.0 mph40.2 kmh 29.67 in1004.7 mb 0.00 in0.0 mm 0.00 in0.0 mm 0.00 in0.0 mm
05:00 PM 46.5°F8.1°C 30.3°F-0.9°C 53% 13.0 mph W20.9 kmh W 26.0 mph41.8 kmh 29.67 in1004.7 mb 0.00 in0.0 mm 0.00 in0.0 mm 0.00 in0.0 mm
04:45 PM 46.9°F8.3°C 29.7°F-1.3°C 51% 15.0 mph WSW24.1 kmh WSW 30.0 mph48.3 kmh 29.67 in1004.7 mb 0.00 in0.0 mm 0.00 in0.0 mm 0.00 in0.0 mm
04:30 PM 47.9°F8.8°C 29.6°F-1.3°C 49% 15.0 mph W24.1 kmh W 33.0 mph53.1 kmh 29.66 in1004.4 mb 0.00 in0.0 mm 0.00 in0.0 mm 0.00 in0.0 mm
04:15 PM 48.3°F9.1°C 31.5°F-0.3°C 52% 18.0 mph W29.0 kmh W 32.0 mph51.5 kmh 29.65 in1004.1 mb 0.00 in0.0 mm 0.00 in0.0 mm 0.00 in0.0 mm
04:00 PM 49.9°F9.9°C 33.4°F0.8°C 53% 14.0 mph W22.5 kmh W 35.0 mph56.3 kmh 29.64 in1003.7 mb 0.00 in0.0 mm 0.00 in0.0 mm 0.00 in0.0 mm
03:45 PM 50.6°F10.3°C 32.6°F0.3°C 50% 17.0 mph W27.4 kmh W 34.0 mph54.7 kmh 29.62 in1003.0 mb 0.00 in0.0 mm 0.00 in0.0 mm 0.00 in0.0 mm
03:30 PM 51.3°F10.7°C 32.8°F0.4°C 49% 13.0 mph W20.9 kmh W 27.0 mph43.5 kmh 29.61 in1002.7 mb 0.00 in0.0 mm 0.00 in0.0 mm 0.00 in0.0 mm
03:15 PM 51.6°F10.9°C 33.0°F0.6°C 49% 12.0 mph WSW19.3 kmh WSW 27.0 mph43.5 kmh 29.60 in1002.4 mb 0.00 in0.0 mm 0.00 in0.0 mm 0.00 in0.0 mm
03:00 PM 50.5°F10.3°C 33.0°F0.6°C 51% 12.0 mph W19.3 kmh W 25.0 mph40.2 kmh 29.60 in1002.4 mb 0.00 in0.0 mm 0.00 in0.0 mm 0.00 in0.0 mm
02:45 PM 50.6°F10.3°C 30.0°F-1.1°C 45% 17.0 mph WSW27.4 kmh WSW 34.0 mph54.7 kmh 29.59 in1002.0 mb 0.00 in0.0 mm 0.00 in0.0 mm 0.00 in0.0 mm
02:30 PM 50.2°F10.1°C 32.3°F0.2°C 50% 14.0 mph WSW22.5 kmh WSW 31.0 mph49.9 kmh 29.59 in1002.0 mb 0.00 in0.0 mm 0.00 in0.0 mm 0.00 in0.0 mm
02:15 PM 49.6°F9.8°C 32.7°F0.4°C 52% 14.0 mph WSW22.5 kmh WSW 29.0 mph46.7 kmh 29.59 in1002.0 mb 0.00 in0.0 mm 0.00 in0.0 mm 0.00 in0.0 mm
02:00 PM 49.3°F9.6°C 33.3°F0.7°C 54% 14.0 mph WSW22.5 kmh WSW 29.0 mph46.7 kmh 29.60 in1002.4 mb 0.00 in0.0 mm 0.00 in0.0 mm 0.00 in0.0 mm
01:45 PM 48.3°F9.1°C 35.0°F1.7°C 60% 15.0 mph WSW24.1 kmh WSW 25.0 mph40.2 kmh 29.60 in1002.4 mb 0.00 in0.0 mm 0.00 in0.0 mm 0.00 in0.0 mm
01:30 PM 49.6°F9.8°C 32.2°F0.1°C 51% 14.0 mph WSW22.5 kmh WSW 31.0 mph49.9 kmh 29.60 in1002.4 mb 0.00 in0.0 mm 0.00 in0.0 mm 0.00 in0.0 mm
01:15 PM 50.0°F10.0°C 33.5°F0.8°C 53% 15.0 mph SW24.1 kmh SW 25.0 mph40.2 kmh 29.61 in1002.7 mb 0.00 in0.0 mm 0.00 in0.0 mm 0.00 in0.0 mm
01:00 PM 48.5°F9.2°C 33.9°F1.1°C 57% 14.0 mph WSW22.5 kmh WSW 24.0 mph38.6 kmh 29.61 in1002.7 mb 0.00 in0.0 mm 0.00 in0.0 mm 0.00 in0.0 mm
12:45 PM 47.4°F8.6°C 32.0°F0.0°C 55% 14.0 mph WSW22.5 kmh WSW 32.0 mph51.5 kmh 29.62 in1003.0 mb 0.00 in0.0 mm 0.00 in0.0 mm 0.00 in0.0 mm
12:30 PM 46.3°F7.9°C 31.4°F-0.3°C 56% 15.0 mph WSW24.1 kmh WSW 34.0 mph54.7 kmh 29.62 in1003.0 mb 0.00 in0.0 mm 0.00 in0.0 mm 0.00 in0.0 mm
12:15 PM 45.7°F7.6°C 31.3°F-0.4°C 57% 15.0 mph WSW24.1 kmh WSW 31.0 mph49.9 kmh 29.63 in1003.4 mb 0.00 in0.0 mm 0.00 in0.0 mm 0.00 in0.0 mm
12:00 PM 44.9°F7.2°C 30.6°F-0.8°C 57% 15.0 mph W24.1 kmh W 28.0 mph45.1 kmh 29.63 in1003.4 mb 0.00 in0.0 mm 0.00 in0.0 mm 0.00 in0.0 mm
11:45 AM 44.4°F6.9°C 30.1°F-1.1°C 57% 16.0 mph WSW25.7 kmh WSW 33.0 mph53.1 kmh 29.63 in1003.4 mb 0.00 in0.0 mm 0.00 in0.0 mm 0.00 in0.0 mm
11:30 AM 44.6°F7.0°C 30.3°F-0.9°C 57% 11.0 mph WSW17.7 kmh WSW 25.0 mph40.2 kmh 29.63 in1003.4 mb 0.00 in0.0 mm 0.00 in0.0 mm 0.00 in0.0 mm
11:15 AM 43.8°F6.6°C 30.0°F-1.1°C 58% 14.0 mph WSW22.5 kmh WSW 26.0 mph41.8 kmh 29.63 in1003.4 mb 0.00 in0.0 mm 0.00 in0.0 mm 0.00 in0.0 mm
11:00 AM 43.7°F6.5°C 29.9°F-1.2°C 58% 16.0 mph WSW25.7 kmh WSW 31.0 mph49.9 kmh 29.62 in1003.0 mb 0.00 in0.0 mm 0.00 in0.0 mm 0.00 in0.0 mm
10:45 AM 43.3°F6.3°C 30.3°F-0.9°C 60% 17.0 mph WSW27.4 kmh WSW 29.0 mph46.7 kmh 29.61 in1002.7 mb 0.00 in0.0 mm 0.00 in0.0 mm 0.00 in0.0 mm
10:30 AM 43.6°F6.4°C 31.4°F-0.3°C 62% 14.0 mph WSW22.5 kmh WSW 25.0 mph40.2 kmh 29.62 in1003.0 mb 0.00 in0.0 mm 0.00 in0.0 mm 0.00 in0.0 mm
10:15 AM 43.0°F6.1°C 31.3°F-0.4°C 63% 14.0 mph WSW22.5 kmh WSW 31.0 mph49.9 kmh 29.61 in1002.7 mb 0.00 in0.0 mm 0.00 in0.0 mm 0.00 in0.0 mm
10:00 AM 43.8°F6.6°C 32.0°F0.0°C 63% 11.0 mph WSW17.7 kmh WSW 24.0 mph38.6 kmh 29.61 in1002.7 mb 0.00 in0.0 mm 0.00 in0.0 mm 0.00 in0.0 mm
09:45 AM 41.7°F5.4°C 32.3°F0.2°C 69% 12.0 mph WSW19.3 kmh WSW 24.0 mph38.6 kmh 29.61 in1002.7 mb 0.00 in0.0 mm 0.00 in0.0 mm 0.00 in0.0 mm
09:30 AM 40.5°F4.7°C 32.5°F0.3°C 73% 12.0 mph WSW19.3 kmh WSW 23.0 mph37.0 kmh 29.62 in1003.0 mb 0.00 in0.0 mm 0.00 in0.0 mm 0.00 in0.0 mm
09:15 AM 40.4°F4.7°C 32.1°F0.1°C 72% 14.0 mph WSW22.5 kmh WSW 27.0 mph43.5 kmh 29.61 in1002.7 mb 0.00 in0.0 mm 0.00 in0.0 mm 0.00 in0.0 mm
09:00 AM 40.5°F4.7°C 32.5°F0.3°C 73% 11.0 mph WSW17.7 kmh WSW 24.0 mph38.6 kmh 29.61 in1002.7 mb 0.00 in0.0 mm 0.00 in0.0 mm 0.00 in0.0 mm
08:45 AM 40.4°F4.7°C 32.1°F0.1°C 72% 12.0 mph WSW19.3 kmh WSW 23.0 mph37.0 kmh 29.61 in1002.7 mb 0.00 in0.0 mm 0.00 in0.0 mm 0.00 in0.0 mm
08:30 AM 40.4°F4.7°C 32.4°F0.2°C 73% 12.0 mph WSW19.3 kmh WSW 21.0 mph33.8 kmh 29.61 in1002.7 mb 0.00 in0.0 mm 0.00 in0.0 mm 0.00 in0.0 mm
08:15 AM 40.5°F4.7°C 32.5°F0.3°C 73% 10.0 mph WSW16.1 kmh WSW 25.0 mph40.2 kmh 29.61 in1002.7 mb 0.00 in0.0 mm 0.00 in0.0 mm 0.00 in0.0 mm
08:00 AM 40.7°F4.8°C 32.4°F0.2°C 72% 12.0 mph WSW19.3 kmh WSW 24.0 mph38.6 kmh 29.61 in1002.7 mb 0.00 in0.0 mm 0.00 in0.0 mm 0.00 in0.0 mm
07:45 AM 40.3°F4.6°C 32.7°F0.4°C 74% 11.0 mph WSW17.7 kmh WSW 21.0 mph33.8 kmh 29.61 in1002.7 mb 0.00 in0.0 mm 0.00 in0.0 mm 0.00 in0.0 mm
07:30 AM 39.6°F4.2°C 32.7°F0.4°C 76% 12.0 mph SW19.3 kmh SW 24.0 mph38.6 kmh 29.60 in1002.4 mb 0.00 in0.0 mm 0.00 in0.0 mm 0.00 in0.0 mm
07:15 AM 39.2°F4.0°C 32.6°F0.3°C 77% 8.0 mph SW12.9 kmh SW 19.0 mph30.6 kmh 29.60 in1002.4 mb 0.00 in0.0 mm 0.00 in0.0 mm 0.00 in0.0 mm
07:00 AM 39.0°F3.9°C 32.1°F0.1°C 76% 9.0 mph SW14.5 kmh SW 19.0 mph30.6 kmh 29.60 in1002.4 mb 0.00 in0.0 mm 0.00 in0.0 mm 0.00 in0.0 mm
06:45 AM 38.9°F3.8°C 32.0°F0.0°C 76% 10.0 mph WSW16.1 kmh WSW 21.0 mph33.8 kmh 29.59 in1002.0 mb 0.00 in0.0 mm 0.00 in0.0 mm 0.00 in0.0 mm
06:30 AM 38.5°F3.6°C 31.9°F-0.1°C 77% 8.0 mph WSW12.9 kmh WSW 18.0 mph29.0 kmh 29.59 in1002.0 mb 0.00 in0.0 mm 0.00 in0.0 mm 0.00 in0.0 mm
06:15 AM 37.9°F3.3°C 31.7°F-0.2°C 78% 10.0 mph WSW16.1 kmh WSW 21.0 mph33.8 kmh 29.59 in1002.0 mb 0.00 in0.0 mm 0.00 in0.0 mm 0.00 in0.0 mm
06:00 AM 37.5°F3.1°C 31.6°F-0.2°C 79% 7.0 mph SW11.3 kmh SW 19.0 mph30.6 kmh 29.59 in1002.0 mb 0.00 in0.0 mm 0.00 in0.0 mm 0.00 in0.0 mm
05:45 AM 37.4°F3.0°C 31.2°F-0.4°C 78% 9.0 mph SW14.5 kmh SW 18.0 mph29.0 kmh 29.59 in1002.0 mb 0.00 in0.0 mm 0.00 in0.0 mm 0.00 in0.0 mm
05:30 AM 37.4°F3.0°C 31.5°F-0.3°C 79% 9.0 mph SW14.5 kmh SW 21.0 mph33.8 kmh 29.59 in1002.0 mb 0.00 in0.0 mm 0.00 in0.0 mm 0.00 in0.0 mm
05:15 AM 37.3°F2.9°C 31.4°F-0.3°C 79% 7.0 mph SW11.3 kmh SW 20.0 mph32.2 kmh 29.59 in1002.0 mb 0.00 in0.0 mm 0.00 in0.0 mm 0.00 in0.0 mm
05:00 AM 37.5°F3.1°C 31.6°F-0.2°C 79% 7.0 mph SW11.3 kmh SW 17.0 mph27.4 kmh 29.59 in1002.0 mb 0.00 in0.0 mm 0.00 in0.0 mm 0.00 in0.0 mm
04:45 AM 37.6°F3.1°C 32.0°F0.0°C 80% 6.0 mph SW9.7 kmh SW 14.0 mph22.5 kmh 29.59 in1002.0 mb 0.00 in0.0 mm 0.00 in0.0 mm 0.00 in0.0 mm
04:30 AM 37.7°F3.2°C 32.1°F0.1°C 80% 8.0 mph SW12.9 kmh SW 15.0 mph24.1 kmh 29.59 in1002.0 mb 0.00 in0.0 mm 0.00 in0.0 mm 0.00 in0.0 mm
04:15 AM 37.8°F3.2°C 32.2°F0.1°C 80% 5.0 mph SW8.0 kmh SW 12.0 mph19.3 kmh 29.59 in1002.0 mb 0.00 in0.0 mm 0.00 in0.0 mm 0.00 in0.0 mm
04:00 AM 38.0°F3.3°C 32.4°F0.2°C 80% 7.0 mph SW11.3 kmh SW 17.0 mph27.4 kmh 29.59 in1002.0 mb 0.00 in0.0 mm 0.00 in0.0 mm 0.00 in0.0 mm
03:45 AM 37.9°F3.3°C 32.6°F0.3°C 81% 6.0 mph SW9.7 kmh SW 14.0 mph22.5 kmh 29.59 in1002.0 mb 0.00 in0.0 mm 0.00 in0.0 mm 0.00 in0.0 mm
03:30 AM 37.9°F3.3°C 32.6°F0.3°C 81% 6.0 mph SW9.7 kmh SW 14.0 mph22.5 kmh 29.59 in1002.0 mb 0.00 in0.0 mm 0.00 in0.0 mm 0.00 in0.0 mm
03:15 AM 38.1°F3.4°C 32.8°F0.4°C 81% 4.0 mph SW6.4 kmh SW 11.0 mph17.7 kmh 29.59 in1002.0 mb 0.00 in0.0 mm 0.00 in0.0 mm 0.00 in0.0 mm
02:45 AM 38.6°F3.7°C 33.3°F0.7°C 81% 6.0 mph SW9.7 kmh SW 13.0 mph20.9 kmh 29.59 in1002.0 mb 0.00 in0.0 mm 0.00 in0.0 mm 0.00 in0.0 mm
02:30 AM 38.5°F3.6°C 33.5°F0.8°C 82% 5.0 mph SW8.0 kmh SW 14.0 mph22.5 kmh 29.60 in1002.4 mb 0.00 in0.0 mm 0.00 in0.0 mm 0.00 in0.0 mm
02:15 AM 38.5°F3.6°C 33.8°F1.0°C 83% 6.0 mph SW9.7 kmh SW 14.0 mph22.5 kmh 29.60 in1002.4 mb 0.00 in0.0 mm 0.00 in0.0 mm 0.00 in0.0 mm
02:00 AM 38.6°F3.7°C 33.9°F1.1°C 83% 6.0 mph SW9.7 kmh SW 15.0 mph24.1 kmh 29.60 in1002.4 mb 0.00 in0.0 mm 0.00 in0.0 mm 0.00 in0.0 mm
01:45 AM 38.6°F3.7°C 34.2°F1.2°C 84% 4.0 mph SW6.4 kmh SW 11.0 mph17.7 kmh 29.61 in1002.7 mb 0.00 in0.0 mm 0.00 in0.0 mm 0.00 in0.0 mm
01:30 AM 38.7°F3.7°C 34.3°F1.3°C 84% 5.0 mph SW8.0 kmh SW 11.0 mph17.7 kmh 29.61 in1002.7 mb 0.00 in0.0 mm 0.00 in0.0 mm 0.00 in0.0 mm
01:15 AM 38.9°F3.8°C 34.2°F1.2°C 83% 5.0 mph SW8.0 kmh SW 11.0 mph17.7 kmh 29.61 in1002.7 mb 0.00 in0.0 mm 0.00 in0.0 mm 0.00 in0.0 mm
01:00 AM 38.9°F3.8°C 34.2°F1.2°C 83% 5.0 mph SW8.0 kmh SW 13.0 mph20.9 kmh 29.61 in1002.7 mb 0.00 in0.0 mm 0.00 in0.0 mm 0.00 in0.0 mm
12:45 AM 39.0°F3.9°C 34.6°F1.4°C 84% 6.0 mph SW9.7 kmh SW 14.0 mph22.5 kmh 29.61 in1002.7 mb 0.00 in0.0 mm 0.00 in0.0 mm 0.00 in0.0 mm
12:30 AM 39.0°F3.9°C 34.6°F1.4°C 84% 4.0 mph SW6.4 kmh SW 11.0 mph17.7 kmh 29.61 in1002.7 mb 0.00 in0.0 mm 0.00 in0.0 mm 0.00 in0.0 mm
12:15 AM 39.2°F4.0°C 34.5°F1.4°C 83% 5.0 mph SW8.0 kmh SW 13.0 mph20.9 kmh 29.61 in1002.7 mb 0.00 in0.0 mm 0.00 in0.0 mm 0.00 in0.0 mm
12:00 AM 39.3°F4.1°C 34.3°F1.3°C 82% 4.0 mph SW6.4 kmh SW 10.0 mph16.1 kmh 29.62 in1003.0 mb 0.00 in0.0 mm 0.00 in0.0 mm 0.00 in0.0 mm